createdAt,value
2023-01-29T00:28:47.565Z,80.50
2023-01-29T00:58:51.139Z,80.77
2023-01-29T01:28:54.544Z,81.02
2023-01-29T01:58:57.454Z,81.65
2023-01-29T02:29:02.449Z,82.17
2023-01-29T02:59:05.503Z,81.88
2023-01-29T03:29:08.760Z,81.75
2023-01-29T03:59:12.048Z,81.44
2023-01-29T04:29:15.377Z,81.49
2023-01-29T04:59:18.299Z,82.47
2023-01-29T05:29:22.426Z,82.23
2023-01-29T05:59:25.300Z,82.46
2023-01-29T06:29:29.404Z,85.32
2023-01-29T06:59:32.318Z,87.06
2023-01-29T07:29:36.296Z,88.36
2023-01-29T07:59:39.107Z,87.83
2023-01-29T08:29:43.214Z,87.69
2023-01-29T08:59:46.103Z,88.28
2023-01-29T09:29:51.094Z,88.19
2023-01-29T09:59:54.249Z,88.57
2023-01-29T11:00:21.418Z,88.22
2023-01-29T12:01:00.490Z,89.39
2023-01-29T12:31:26.458Z,89.80
2023-01-29T13:01:30.980Z,89.71
2023-01-29T14:01:53.087Z,90.56
2023-01-29T15:02:14.505Z,91.75
2023-01-29T15:32:18.223Z,92.14
2023-01-29T16:02:27.156Z,92.20
2023-01-29T16:32:34.243Z,91.92
2023-01-29T17:02:38.420Z,91.98
2023-01-29T17:32:58.355Z,91.69
2023-01-29T18:03:14.889Z,91.48
2023-01-29T18:33:18.602Z,91.20
2023-01-29T19:03:22.651Z,91.29
2023-01-29T19:33:25.670Z,91.61
2023-01-29T20:03:45.451Z,92.33
2023-01-29T20:33:48.836Z,93.17
2023-01-29T21:03:54.210Z,93.38
2023-01-29T21:33:57.367Z,93.05
2023-01-29T22:04:00.383Z,93.81
2023-01-29T22:34:04.397Z,94.43
2023-01-29T23:04:08.103Z,93.94
2023-01-29T23:34:10.967Z,93.19
